Time;durP1;ratioP1;P1;durP2;ratioP2;P2;SDS_P1;SDS_P2;PMS_P1;PMS_P2;Temp;Humidity;BMP_temperature;BMP_pressure;BME280_temperature;BME280_humidity;BME280_pressure;Samples;Min_cycle;Max_cycle;Signal;HPM_P1;HPM_P2
2021/04/30 00:02:16;;;;;;;5.72;1.45;;;;;;;11.02;96.87;97518.84;5087053;27;45361;-79
2021/04/30 00:04:41;;;;;;;2.58;1.10;;;;;;;10.93;98.04;97522.56;5089175;27;45461;-79
2021/04/30 00:07:07;;;;;;;3.22;1.42;;;;;;;10.97;98.11;97517.72;5091649;27;45583;-79
2021/04/30 00:09:33;;;;;;;4.10;1.50;;;;;;;11.00;97.47;97515.53;5078363;27;46097;-79
2021/04/30 00:11:59;;;;;;;6.93;1.98;;;;;;;11.11;97.28;97519.63;5077577;27;45282;-79
2021/04/30 00:14:25;;;;;;;1.63;1.20;;;;;;;11.08;97.05;97507.50;5078197;27;45277;-79
2021/04/30 00:16:52;;;;;;;2.30;1.13;;;;;;;11.07;97.38;97508.50;5078196;27;45159;-79
2021/04/30 00:19:19;;;;;;;3.83;1.10;;;;;;;10.97;97.01;97501.75;5078279;27;45306;-78
2021/04/30 00:21:44;;;;;;;5.20;1.42;;;;;;;11.03;96.97;97496.53;5093753;27;45440;-79
2021/04/30 00:24:11;;;;;;;2.20;1.13;;;;;;;10.98;96.83;97498.09;5087027;27;45332;-79
2021/04/30 00:26:36;;;;;;;1.77;1.02;;;;;;;10.99;97.11;97489.91;5097679;27;45738;-78
2021/04/30 00:29:02;;;;;;;2.67;1.23;;;;;;;10.97;98.07;97489.28;5091089;27;45994;-79
2021/04/30 00:31:28;;;;;;;2.17;1.15;;;;;;;10.94;98.39;97482.50;5096321;27;45271;-79
2021/04/30 00:33:53;;;;;;;3.58;1.10;;;;;;;11.03;98.34;97477.09;5098320;27;45256;-78
2021/04/30 00:36:19;;;;;;;7.07;1.25;;;;;;;11.15;97.51;97482.84;5097848;27;45353;-79
2021/04/30 00:38:44;;;;;;;1.75;0.80;;;;;;;11.14;95.93;97482.00;5086475;27;46025;-79
2021/04/30 00:41:10;;;;;;;3.35;0.90;;;;;;;11.14;96.12;97486.50;5086340;27;45403;-78
2021/04/30 00:43:35;;;;;;;2.65;1.20;;;;;;;11.13;96.16;97490.19;5077793;27;45225;-79
2021/04/30 00:46:01;;;;;;;4.03;1.50;;;;;;;11.20;96.06;97499.91;5076289;27;45498;-79
2021/04/30 00:48:26;;;;;;;6.38;1.80;;;;;;;11.18;95.80;97493.13;5077875;27;45209;-79
2021/04/30 00:50:53;;;;;;;3.17;1.88;;;;;;;11.11;95.66;97493.00;5077863;27;45337;-79
2021/04/30 00:53:18;;;;;;;7.53;2.20;;;;;;;11.09;96.89;97485.22;5078880;27;45365;-79
2021/04/30 00:55:44;;;;;;;6.78;2.20;;;;;;;11.01;97.01;97489.75;5077493;27;45361;-80
2021/04/30 00:58:10;;;;;;;3.65;1.70;;;;;;;11.00;96.70;97488.09;5077262;27;46250;-80
2021/04/30 01:00:38;;;;;;;4.00;2.08;;;;;;;11.03;97.82;97485.09;5085664;27;45514;-80
2021/04/30 01:03:08;;;;;;;3.45;2.13;;;;;;;11.11;96.28;97482.38;5098099;27;45358;-80
2021/04/30 01:05:34;;;;;;;6.63;1.58;;;;;;;11.13;95.93;97480.34;5079781;27;45283;-80
2021/04/30 01:07:59;;;;;;;2.88;1.70;;;;;;;11.17;95.71;97486.16;5077666;28;45459;-80
2021/04/30 01:10:25;;;;;;;3.78;1.90;;;;;;;11.24;96.55;97487.09;5078444;27;45342;-79
2021/04/30 01:12:50;;;;;;;6.10;2.03;;;;;;;11.31;97.20;97490.69;5077400;27;45302;-79
2021/04/30 01:15:17;;;;;;;4.43;1.70;;;;;;;11.24;96.92;97485.25;5077375;27;45328;-78
2021/04/30 01:17:43;;;;;;;6.22;1.73;;;;;;;11.20;97.52;97486.63;5077641;27;46039;-78
2021/04/30 01:20:10;;;;;;;3.50;1.15;;;;;;;11.12;96.59;97484.03;5078276;27;45290;-78
2021/04/30 01:22:38;;;;;;;3.88;0.90;;;;;;;11.12;96.50;97477.88;5078573;27;45261;-78
2021/04/30 01:25:09;;;;;;;4.13;1.20;;;;;;;11.16;95.55;97473.84;5078125;28;45653;-78
2021/04/30 01:27:36;;;;;;;2.53;1.20;;;;;;;11.05;95.31;97480.41;5080457;27;46011;-78
2021/04/30 01:30:06;;;;;;;2.42;1.10;;;;;;;11.15;95.73;97466.88;5081031;27;45247;-78
2021/04/30 01:32:32;;;;;;;;;;;;;;;11.17;95.66;97467.53;5081239;27;45452;-78
2021/04/30 01:34:57;;;;;;;1.98;1.30;;;;;;;11.21;97.11;97469.63;5089873;27;45492;-79
2021/04/30 01:37:24;;;;;;;5.05;1.30;;;;;;;11.24;96.38;97479.13;5099619;27;46140;-79
2021/04/30 01:39:50;;;;;;;5.75;1.30;;;;;;;11.28;96.92;97476.91;5086804;27;45485;-79
2021/04/30 01:42:15;;;;;;;2.75;1.52;;;;;;;11.27;98.80;97478.75;5099267;27;45411;-79
2021/04/30 01:44:41;;;;;;;2.60;1.75;;;;;;;11.26;97.23;97487.75;5080881;27;45401;-79
2021/04/30 01:47:06;;;;;;;4.10;1.45;;;;;;;11.29;97.21;97498.03;5080548;27;46284;-79
2021/04/30 01:49:31;;;;;;;3.45;2.03;;;;;;;11.33;96.52;97482.50;5080392;27;45396;-79
2021/04/30 01:51:57;;;;;;;4.13;2.08;;;;;;;11.39;97.10;97485.28;5080584;27;45295;-79
2021/04/30 01:54:23;;;;;;;3.38;2.50;;;;;;;11.37;97.15;97492.63;5080495;27;45240;-79
2021/04/30 01:56:50;;;;;;;7.68;2.97;;;;;;;11.37;96.35;97483.81;5091874;27;47972;-78
2021/04/30 01:59:15;;;;;;;5.60;2.20;;;;;;;11.38;96.20;97480.13;5087171;27;45285;-79
2021/04/30 02:01:40;;;;;;;4.82;3.15;;;;;;;11.36;97.81;97493.66;5100296;27;45451;-79
2021/04/30 02:04:10;;;;;;;8.07;3.10;;;;;;;11.30;97.66;97496.19;5093883;27;45332;-79
2021/04/30 02:06:36;;;;;;;5.10;2.65;;;;;;;11.30;97.77;97491.69;5080207;27;45171;-79
2021/04/30 02:09:02;;;;;;;5.22;3.15;;;;;;;11.34;97.35;97492.16;5084423;27;45414;-79
2021/04/30 02:11:27;;;;;;;6.07;3.70;;;;;;;11.24;96.77;97487.09;5089847;27;45222;-78
2021/04/30 02:13:53;;;;;;;7.82;4.28;;;;;;;11.15;97.81;97488.16;5097660;27;45373;-79
2021/04/30 02:16:18;;;;;;;5.63;4.00;;;;;;;11.22;97.00;97489.09;5085960;27;45464;-79
2021/04/30 02:18:44;;;;;;;7.28;4.28;;;;;;;11.16;96.87;97480.00;5080258;27;45269;-79
2021/04/30 02:21:09;;;;;;;8.05;4.45;;;;;;;11.22;97.33;97483.78;5080301;27;45336;-79
2021/04/30 02:23:35;;;;;;;8.07;4.20;;;;;;;11.20;97.23;97483.13;5080217;28;45382;-79
2021/04/30 02:26:00;;;;;;;7.22;3.72;;;;;;;11.16;97.32;97473.84;5079982;27;45611;-78
2021/04/30 02:28:25;;;;;;;10.05;5.35;;;;;;;11.13;99.25;97468.91;5079535;27;45324;-79
2021/04/30 02:30:51;;;;;;;6.97;4.30;;;;;;;11.07;98.35;97471.25;5082062;27;45545;-79
2021/04/30 02:33:16;;;;;;;7.35;4.20;;;;;;;10.93;99.27;97470.19;5092858;27;45531;-79
2021/04/30 02:35:45;;;;;;;8.90;5.00;;;;;;;10.88;99.31;97467.25;5088446;27;45286;-79
2021/04/30 02:38:12;;;;;;;5.88;3.22;;;;;;;10.68;99.70;97466.06;5092572;27;45239;-79
2021/04/30 02:40:40;;;;;;;6.20;3.30;;;;;;;10.77;99.46;97463.16;5093717;27;45399;-79
2021/04/30 02:43:09;;;;;;;7.75;4.22;;;;;;;10.93;100.00;97469.34;5086399;27;45272;-79
2021/04/30 02:45:35;;;;;;;7.13;3.40;;;;;;;11.01;99.58;97455.97;5085472;27;45884;-79
2021/04/30 02:48:01;;;;;;;6.85;3.38;;;;;;;10.98;99.04;97456.34;5079830;27;45229;-79
2021/04/30 02:50:30;;;;;;;6.20;3.03;;;;;;;10.85;99.97;97472.91;5078485;28;45261;-78
2021/04/30 02:52:56;;;;;;;4.82;2.90;;;;;;;10.86;99.08;97453.28;5079829;27;45571;-79
2021/04/30 02:55:24;;;;;;;6.05;3.20;;;;;;;10.93;99.47;97453.38;5079814;27;48083;-79
2021/04/30 02:57:52;;;;;;;3.95;2.60;;;;;;;10.96;98.99;97453.03;5094866;27;45379;-79
2021/04/30 03:00:18;;;;;;;8.02;2.28;;;;;;;10.85;97.97;97450.78;5083381;27;45155;-78
2021/04/30 03:02:43;;;;;;;4.72;2.13;;;;;;;10.85;98.49;97446.31;5091862;27;45559;-78
2021/04/30 03:05:09;;;;;;;5.57;2.15;;;;;;;10.89;97.96;97436.13;5086119;27;45487;-78
2021/04/30 03:07:34;;;;;;;5.85;2.60;;;;;;;10.92;98.15;97423.31;5090204;27;45300;-79
2021/04/30 03:10:00;;;;;;;4.80;2.78;;;;;;;10.93;98.70;97432.94;5079457;28;45455;-79
2021/04/30 03:12:26;;;;;;;4.07;2.38;;;;;;;10.75;98.91;97433.25;5079078;27;45286;-78
2021/04/30 03:14:52;;;;;;;6.22;2.22;;;;;;;10.56;99.41;97423.06;5079126;27;45961;-79
2021/04/30 03:17:17;;;;;;;4.80;2.40;;;;;;;10.63;99.50;97429.34;5079332;27;45304;-79
2021/04/30 03:19:42;;;;;;;5.10;1.90;;;;;;;10.75;98.75;97427.91;5078048;27;45538;-79
2021/04/30 03:22:08;;;;;;;3.60;1.30;;;;;;;10.87;97.73;97419.53;5079318;27;45300;-79
2021/04/30 03:24:33;;;;;;;2.70;1.58;;;;;;;10.84;97.92;97419.88;5078997;27;45317;-79
2021/04/30 03:26:59;;;;;;;4.55;1.70;;;;;;;10.92;99.82;97418.00;5078797;27;45285;-78
2021/04/30 03:29:24;;;;;;;5.40;2.00;;;;;;;11.00;98.94;97421.59;5087337;27;45493;-79
2021/04/30 03:31:50;;;;;;;5.00;2.33;;;;;;;11.07;98.53;97427.84;5090196;27;45221;-79
2021/04/30 03:34:16;;;;;;;5.13;2.88;;;;;;;11.08;98.40;97432.16;5078729;27;46498;-78
2021/04/30 03:36:41;;;;;;;4.65;2.20;;;;;;;11.07;97.72;97423.38;5096354;27;45356;-79
2021/04/30 03:39:08;;;;;;;5.55;2.30;;;;;;;11.05;97.35;97427.22;5083819;27;45249;-78
2021/04/30 03:41:35;;;;;;;4.30;1.83;;;;;;;11.04;97.22;97431.69;5089808;27;45372;-78
2021/04/30 03:44:00;;;;;;;3.83;1.90;;;;;;;11.01;97.36;97434.69;5078441;27;45969;-79
2021/04/30 03:46:26;;;;;;;9.15;2.63;;;;;;;10.94;97.27;97437.25;5078338;28;45333;-79
2021/04/30 03:48:52;;;;;;;5.63;2.53;;;;;;;10.87;98.25;97438.97;5077138;27;45329;-78
2021/04/30 03:51:17;;;;;;;5.05;2.67;;;;;;;10.99;97.73;97441.22;5078662;27;45499;-78
2021/04/30 03:53:43;;;;;;;3.92;2.33;;;;;;;11.00;97.18;97441.03;5077408;28;47203;-78
2021/04/30 03:56:08;;;;;;;5.45;2.25;;;;;;;10.94;97.36;97439.09;5087031;27;45214;-79
2021/04/30 03:58:34;;;;;;;3.80;2.60;;;;;;;10.86;97.77;97434.66;5085958;27;45288;-79
2021/04/30 04:01:00;;;;;;;6.30;2.85;;;;;;;10.92;97.60;97435.78;5096469;27;45389;-78
2021/04/30 04:03:25;;;;;;;5.55;2.58;;;;;;;10.87;97.63;97435.47;5093068;27;47788;-78
2021/04/30 04:05:51;;;;;;;4.90;2.63;;;;;;;11.02;98.68;97428.38;5087328;27;45260;-79
2021/04/30 04:08:16;;;;;;;6.22;2.58;;;;;;;11.00;99.42;97434.91;5083222;27;45455;-78
2021/04/30 04:10:42;;;;;;;6.75;2.58;;;;;;;11.06;99.42;97432.38;5078464;28;45520;-78
2021/04/30 04:13:18;;;;;;;5.20;2.63;;;;;;;11.08;97.38;97432.16;5077914;27;46262;-79
2021/04/30 04:15:45;;;;;;;7.35;3.40;;;;;;;11.05;97.78;97433.38;5077037;27;45337;-79
2021/04/30 04:18:12;;;;;;;5.50;3.30;;;;;;;11.12;98.29;97432.66;5077089;28;45361;-79
2021/04/30 04:20:37;;;;;;;7.15;3.65;;;;;;;11.14;97.88;97433.28;5078441;27;45250;-79
2021/04/30 04:23:03;;;;;;;6.35;4.05;;;;;;;11.09;98.04;97425.84;5077988;27;45484;-79
2021/04/30 04:25:29;;;;;;;10.77;4.45;;;;;;;10.90;98.48;97427.16;5076938;28;45290;-78
2021/04/30 04:27:54;;;;;;;5.80;3.17;;;;;;;11.03;98.45;97421.22;5076478;27;45392;-79
2021/04/30 04:30:20;;;;;;;6.88;3.50;;;;;;;11.04;98.05;97421.03;5096358;27;45152;-79
2021/04/30 04:32:47;;;;;;;7.05;4.45;;;;;;;11.06;98.06;97415.56;5080294;27;46175;-79
2021/04/30 04:35:12;;;;;;;8.30;4.28;;;;;;;10.97;98.34;97412.13;5082898;27;45320;-79
2021/04/30 04:37:38;;;;;;;9.07;5.13;;;;;;;10.96;97.79;97402.50;5077925;27;45296;-78
2021/04/30 04:40:04;;;;;;;8.40;5.55;;;;;;;10.99;99.25;97406.63;5086978;27;45466;-79
2021/04/30 04:42:29;;;;;;;7.88;5.82;;;;;;;11.06;98.55;97405.75;5081947;27;45348;-78
2021/04/30 04:44:55;;;;;;;8.35;5.20;;;;;;;11.01;98.18;97405.44;5077968;27;45354;-78
2021/04/30 04:47:21;;;;;;;7.10;4.55;;;;;;;11.00;97.52;97403.78;5077983;27;45344;-79
2021/04/30 04:49:46;;;;;;;11.10;4.30;;;;;;;10.88;97.67;97395.41;5078141;27;45482;-79
2021/04/30 04:52:12;;;;;;;7.00;4.30;;;;;;;10.93;97.75;97395.72;5076605;28;47257;-79
2021/04/30 04:54:37;;;;;;;6.78;3.95;;;;;;;10.87;98.69;97395.59;5077807;27;45321;-79
2021/04/30 04:57:03;;;;;;;10.48;4.30;;;;;;;10.92;98.16;97394.06;5078515;27;45515;-79
2021/04/30 04:59:29;;;;;;;8.27;4.05;;;;;;;10.92;98.02;97399.38;5080570;28;45225;-79
2021/04/30 05:01:54;;;;;;;6.55;3.78;;;;;;;11.15;97.70;97403.03;5087013;27;45285;-79
2021/04/30 05:04:20;;;;;;;5.47;2.90;;;;;;;11.13;97.08;97407.69;5089124;27;45334;-79
2021/04/30 05:06:46;;;;;;;5.68;3.70;;;;;;;11.18;97.15;97400.81;5085927;27;45461;-79
2021/04/30 05:09:11;;;;;;;8.70;3.78;;;;;;;11.13;96.76;97397.06;5084995;27;45444;-84
2021/04/30 05:11:37;;;;;;;9.63;4.50;;;;;;;11.01;96.98;97386.81;5094043;27;46303;-80
2021/04/30 05:14:03;;;;;;;9.85;4.30;;;;;;;11.20;97.68;97396.13;5080500;27;45555;-84
2021/04/30 05:16:28;;;;;;;11.20;4.57;;;;;;;11.34;97.21;97391.84;5094770;27;45488;-83
2021/04/30 05:18:54;;;;;;;9.25;6.07;;;;;;;11.45;97.33;97397.72;5094451;27;45518;-82
2021/04/30 05:21:19;;;;;;;7.70;5.03;;;;;;;11.27;96.85;97392.75;5087807;27;47959;-87
2021/04/30 05:23:45;;;;;;;7.30;4.63;;;;;;;11.41;97.78;97397.25;5080655;27;45453;-90
2021/04/30 05:26:11;;;;;;;5.75;4.53;;;;;;;11.28;97.28;97391.72;5089993;27;45460;-87
2021/04/30 05:28:36;;;;;;;7.55;3.90;;;;;;;11.29;97.49;97394.22;5089815;27;46217;-88
2021/04/30 05:31:02;;;;;;;7.60;3.80;;;;;;;11.22;97.11;97393.31;5087142;27;46098;-86
2021/04/30 05:33:27;;;;;;;7.28;4.68;;;;;;;11.39;96.72;97391.28;5092105;27;45513;-85
2021/04/30 05:35:53;;;;;;;7.55;4.97;;;;;;;11.46;96.07;97402.03;5091579;27;45497;-88
2021/04/30 05:38:18;;;;;;;6.45;4.68;;;;;;;11.42;95.64;97398.09;5091497;27;45255;-85
2021/04/30 05:40:44;;;;;;;9.30;4.50;;;;;;;11.56;95.39;97391.94;5083766;27;45977;-85
2021/04/30 05:43:11;;;;;;;8.30;4.60;;;;;;;11.69;94.54;97401.97;5095486;27;45350;-85
2021/04/30 05:45:36;;;;;;;7.60;4.60;;;;;;;11.94;94.40;97399.00;5095221;27;45300;-86
2021/04/30 05:48:02;;;;;;;7.90;4.40;;;;;;;11.99;93.52;97404.59;5096785;27;45479;-85
2021/04/30 05:50:27;;;;;;;9.05;5.15;;;;;;;12.08;92.91;97403.53;5094487;27;46364;-87
2021/04/30 05:52:53;;;;;;;7.38;4.70;;;;;;;12.15;92.51;97400.94;5089580;27;45381;-87
2021/04/30 05:55:18;;;;;;;8.45;4.72;;;;;;;12.04;92.08;97410.22;5086550;27;45476;-87
2021/04/30 05:57:43;;;;;;;11.20;5.00;;;;;;;11.97;92.99;97402.16;5090043;27;45447;-87
2021/04/30 06:00:11;;;;;;;9.45;5.30;;;;;;;12.08;93.13;97408.84;5086754;27;46609;-87
2021/04/30 06:02:37;;;;;;;6.32;4.38;;;;;;;12.00;91.66;97408.13;5088465;27;45938;-88
2021/04/30 06:05:04;;;;;;;8.43;5.18;;;;;;;11.94;91.33;97407.00;5090420;27;45557;-86
2021/04/30 06:07:29;;;;;;;7.05;3.60;;;;;;;11.78;90.09;97400.03;5092389;27;45557;-87
2021/04/30 06:09:55;;;;;;;9.60;4.28;;;;;;;11.95;91.14;97393.50;5088102;27;45468;-87
2021/04/30 06:12:20;;;;;;;6.55;4.15;;;;;;;11.90;90.46;97395.06;5082908;27;45368;-87
2021/04/30 06:14:46;;;;;;;7.75;4.35;;;;;;;11.79;91.42;97391.84;5084330;27;45375;-87
2021/04/30 06:17:11;;;;;;;9.50;4.43;;;;;;;11.91;92.15;97388.72;5078795;27;45317;-87
2021/04/30 06:19:37;;;;;;;8.05;4.45;;;;;;;12.11;92.72;97381.81;5098965;27;45281;-86
2021/04/30 06:22:03;;;;;;;12.55;5.22;;;;;;;12.26;92.19;97383.63;5092945;27;45313;-86
2021/04/30 06:24:28;;;;;;;10.20;4.60;;;;;;;12.30;91.35;97384.09;5077624;28;45384;-85
2021/04/30 06:26:54;;;;;;;10.50;4.90;;;;;;;12.39;91.02;97383.78;5082659;27;45332;-85
2021/04/30 06:29:19;;;;;;;14.10;5.45;;;;;;;12.49;90.67;97388.81;5078695;27;46336;-85
2021/04/30 06:31:45;;;;;;;12.48;5.15;;;;;;;12.47;90.46;97390.84;5077763;28;45438;-85
2021/04/30 06:34:11;;;;;;;6.47;4.93;;;;;;;12.52;89.73;97396.44;5079126;27;45377;-84
2021/04/30 06:36:36;;;;;;;8.93;5.10;;;;;;;12.56;90.56;97388.88;5089974;27;45489;-86
2021/04/30 06:39:03;;;;;;;9.63;4.75;;;;;;;12.55;89.74;97393.38;5090376;27;47271;-87
2021/04/30 06:41:28;;;;;;;10.52;5.22;;;;;;;12.57;89.76;97392.38;5090246;27;45591;-87
2021/04/30 06:43:54;;;;;;;6.40;4.57;;;;;;;12.58;90.73;97399.34;5087855;27;45426;-87
2021/04/30 06:46:23;;;;;;;8.40;4.68;;;;;;;12.63;89.74;97394.25;5091503;27;45364;-88
2021/04/30 06:48:48;;;;;;;9.32;5.10;;;;;;;12.42;89.79;97397.75;5078380;27;45451;-87
2021/04/30 06:51:14;;;;;;;7.82;4.47;;;;;;;12.24;89.61;97405.16;5078839;27;45372;-87
2021/04/30 06:53:40;;;;;;;6.93;4.53;;;;;;;12.35;90.25;97409.16;5078653;27;45342;-88
2021/04/30 06:56:05;;;;;;;10.55;5.50;;;;;;;12.47;90.22;97406.84;5078287;27;45645;-86
2021/04/30 06:58:30;;;;;;;13.30;5.18;;;;;;;12.42;89.47;97406.56;5098025;27;45648;-87
2021/04/30 07:00:56;;;;;;;11.20;5.30;;;;;;;12.57;89.74;97406.53;5083720;27;45353;-87
2021/04/30 07:03:21;;;;;;;12.75;5.65;;;;;;;12.64;90.74;97401.25;5096710;27;45408;-86
2021/04/30 07:05:47;;;;;;;11.27;5.25;;;;;;;12.75;90.40;97408.75;5084957;27;45476;-87
2021/04/30 07:08:12;;;;;;;11.63;5.63;;;;;;;12.80;88.47;97410.84;5082355;27;45773;-87
2021/04/30 07:10:38;;;;;;;9.38;5.13;;;;;;;13.22;86.30;97413.69;5080484;27;45470;-87
2021/04/30 07:13:13;;;;;;;14.82;5.60;;;;;;;13.46;85.79;97420.47;5089340;27;45273;-87
2021/04/30 07:15:38;;;;;;;8.88;5.90;;;;;;;13.55;85.43;97411.28;5078073;27;45626;-87
2021/04/30 07:18:04;;;;;;;7.32;4.65;;;;;;;13.41;84.80;97415.66;5078156;27;45294;-87
2021/04/30 07:20:31;;;;;;;7.63;5.22;;;;;;;13.59;83.82;97418.91;5076748;28;45377;-87
2021/04/30 07:22:59;;;;;;;9.40;5.13;;;;;;;13.46;84.13;97419.63;5076975;28;45209;-87
2021/04/30 07:25:25;;;;;;;9.27;5.00;;;;;;;13.42;84.06;97420.03;5076666;28;45618;-87
2021/04/30 07:27:50;;;;;;;8.85;5.10;;;;;;;13.40;85.40;97431.91;5077501;27;46016;-87
2021/04/30 07:30:16;;;;;;;8.05;4.90;;;;;;;13.56;84.45;97430.78;5091646;27;45281;-87
2021/04/30 07:32:42;;;;;;;9.63;5.05;;;;;;;13.52;85.28;97445.56;5078017;27;45403;-86
2021/04/30 07:35:08;;;;;;;9.20;4.93;;;;;;;13.47;84.23;97432.81;5081577;27;45561;-87
2021/04/30 07:37:34;;;;;;;10.27;5.28;;;;;;;13.55;85.59;97443.34;5096529;27;45856;-88
2021/04/30 07:40:00;;;;;;;6.97;4.60;;;;;;;13.60;84.84;97445.41;5086097;27;45391;-88
2021/04/30 07:42:25;;;;;;;5.38;3.97;;;;;;;13.42;79.44;97449.41;5082229;27;45352;-87
2021/04/30 07:44:51;;;;;;;10.88;4.20;;;;;;;13.28;84.04;97452.97;5093327;27;45590;-87
2021/04/30 07:47:16;;;;;;;10.65;5.40;;;;;;;13.35;85.67;97453.84;5096264;27;45435;-87
2021/04/30 07:49:42;;;;;;;8.82;5.20;;;;;;;13.28;86.09;97450.28;5077766;27;45356;-88
2021/04/30 07:52:07;;;;;;;9.85;5.35;;;;;;;13.28;84.95;97455.63;5077767;27;45214;-88
2021/04/30 07:54:34;;;;;;;7.13;4.63;;;;;;;13.36;85.54;97460.81;5093324;27;45573;-87
2021/04/30 07:56:59;;;;;;;9.13;5.07;;;;;;;13.10;84.24;97464.94;5078214;27;45538;-87
2021/04/30 07:59:25;;;;;;;9.25;5.95;;;;;;;13.30;86.11;97458.94;5077931;27;45764;-88
2021/04/30 08:01:50;;;;;;;8.18;4.80;;;;;;;13.21;86.74;97465.44;5082871;27;45501;-87
2021/04/30 08:04:16;;;;;;;7.95;4.97;;;;;;;13.13;85.15;97469.03;5088551;27;45528;-88
2021/04/30 08:06:41;;;;;;;7.55;5.40;;;;;;;13.29;86.79;97465.28;5091917;27;45351;-87
2021/04/30 08:09:06;;;;;;;7.60;5.07;;;;;;;13.37;86.90;97464.34;5086042;27;45420;-86
2021/04/30 08:11:35;;;;;;;10.73;5.50;;;;;;;13.38;85.50;97466.00;5097476;27;45419;-87
2021/04/30 08:14:01;;;;;;;8.30;5.20;;;;;;;13.49;86.82;97461.97;5093386;27;45290;-88
2021/04/30 08:16:26;;;;;;;9.32;4.93;;;;;;;13.41;86.55;97466.41;5096658;27;45505;-86
2021/04/30 08:18:52;;;;;;;8.52;5.25;;;;;;;13.54;86.75;97472.91;5097709;27;45405;-88
2021/04/30 08:21:17;;;;;;;7.90;5.20;;;;;;;13.73;85.02;97473.25;5083362;27;45409;-86
2021/04/30 08:23:42;;;;;;;7.57;4.82;;;;;;;13.72;85.83;97472.44;5077076;27;45494;-85
2021/04/30 08:26:08;;;;;;;5.40;3.50;;;;;;;13.66;84.65;97487.38;5076951;27;45931;-88
2021/04/30 08:28:33;;;;;;;4.70;3.22;;;;;;;13.60;82.14;97482.81;5092041;27;45411;-86
2021/04/30 08:30:59;;;;;;;7.35;3.55;;;;;;;13.53;80.35;97487.28;5082984;27;45760;-87
2021/04/30 08:33:26;;;;;;;6.13;3.00;;;;;;;13.45;81.51;97480.25;5093192;27;45405;-86
2021/04/30 08:35:52;;;;;;;6.25;3.05;;;;;;;13.48;83.26;97487.88;5091276;27;45876;-85
2021/04/30 08:38:18;;;;;;;4.88;3.38;;;;;;;13.27;82.86;97476.19;5088838;27;45674;-86
2021/04/30 08:40:44;;;;;;;5.40;3.90;;;;;;;12.94;84.18;97481.19;5077695;27;45356;-83
2021/04/30 08:43:10;;;;;;;8.57;6.13;;;;;;;13.03;85.70;97480.06;5076481;27;45574;-85
2021/04/30 08:45:40;;;;;;;6.75;5.82;;;;;;;13.01;84.40;97476.75;5084259;27;47474;-85
2021/04/30 08:48:10;;;;;;;6.82;4.95;;;;;;;13.28;83.62;97493.00;5094203;27;45348;-84
2021/04/30 08:50:36;;;;;;;9.18;5.22;;;;;;;13.14;83.17;97498.22;5114430;27;45636;-87
2021/04/30 08:53:04;;;;;;;7.85;5.55;;;;;;;13.00;84.65;97501.78;5085733;27;45869;-87
2021/04/30 08:55:30;;;;;;;6.07;4.35;;;;;;;12.82;84.03;97505.72;5076529;27;45571;-87
2021/04/30 08:57:55;;;;;;;7.65;5.10;;;;;;;12.70;84.33;97509.84;5090918;27;45336;-85
2021/04/30 09:00:24;;;;;;;8.63;6.22;;;;;;;12.44;86.27;97508.53;5077167;27;45519;-87
2021/04/30 09:02:50;;;;;;;5.25;3.90;;;;;;;12.60;85.13;97517.34;5090775;27;45197;-82
2021/04/30 09:05:23;;;;;;;9.75;4.30;;;;;;;12.48;84.73;97517.00;5086615;27;45403;-83
2021/04/30 09:07:49;;;;;;;5.93;3.58;;;;;;;12.57;85.59;97528.38;5090163;27;45475;-83
2021/04/30 09:10:16;;;;;;;3.75;2.80;;;;;;;12.08;84.44;97526.09;5076975;27;45563;-82
2021/04/30 09:12:42;;;;;;;2.65;2.00;;;;;;;12.00;84.48;97538.69;5080912;27;45915;-85
2021/04/30 09:15:19;;;;;;;2.83;1.80;;;;;;;11.63;84.75;97528.69;5095229;27;45915;-84
2021/04/30 09:17:45;;;;;;;2.42;1.83;;;;;;;12.02;86.60;97540.16;5079032;27;45533;-84
2021/04/30 09:20:11;;;;;;;3.03;1.20;;;;;;;11.81;83.65;97548.81;5088763;27;45372;-83
2021/04/30 09:22:43;;;;;;;2.88;1.35;;;;;;;11.62;83.65;97540.34;5101968;27;45656;-83
2021/04/30 09:25:10;;;;;;;2.53;1.27;;;;;;;11.25;84.34;97549.97;5081498;27;45810;-84
2021/04/30 09:27:43;;;;;;;2.13;1.00;;;;;;;11.27;84.41;97545.28;5075662;27;45403;-84
2021/04/30 09:30:26;;;;;;;2.08;1.17;;;;;;;11.30;84.08;97549.41;5090071;27;45394;-84
2021/04/30 09:33:17;;;;;;;1.95;1.20;;;;;;;11.47;85.35;97547.47;5076492;27;45547;-85
2021/04/30 09:35:45;;;;;;;2.28;1.40;;;;;;;11.54;84.02;97551.06;5089333;27;47998;-85
2021/04/30 09:38:27;;;;;;;3.45;1.52;;;;;;;11.63;84.12;97541.19;5089930;27;45550;-85
2021/04/30 09:41:02;;;;;;;3.58;2.05;;;;;;;11.45;84.73;97538.81;5089885;27;45254;-84
2021/04/30 09:44:03;;;;;;;4.95;3.60;;;;;;;11.42;85.95;97542.66;5076706;27;45491;-83
2021/04/30 09:46:35;;;;;;;3.45;2.28;;;;;;;11.74;85.74;97540.75;5015871;28;46133;-83
2021/04/30 09:49:08;;;;;;;3.20;2.25;;;;;;;11.96;86.50;97535.53;5082838;27;45336;-84
2021/04/30 09:51:51;;;;;;;2.45;1.50;;;;;;;12.16;84.35;97537.69;5079936;27;45438;-84
2021/04/30 09:54:19;;;;;;;3.95;2.70;;;;;;;12.23;83.21;97528.78;5092950;27;45611;-83
2021/04/30 09:56:49;;;;;;;3.97;1.90;;;;;;;12.02;84.43;97534.03;5085901;27;45479;-85
2021/04/30 09:59:24;;;;;;;3.95;1.63;;;;;;;12.28;84.90;97533.53;5088029;27;45522;-85
2021/04/30 10:02:06;;;;;;;5.38;2.13;;;;;;;12.38;84.86;97541.28;5089478;27;45418;-86
2021/04/30 10:04:36;;;;;;;3.92;2.33;;;;;;;12.22;83.84;97543.13;5088654;27;45404;-86
2021/04/30 10:07:06;;;;;;;3.93;2.20;;;;;;;12.42;84.69;97539.06;5096311;27;45394;-85
2021/04/30 10:09:32;;;;;;;2.50;1.88;;;;;;;12.29;85.08;97534.38;5098232;27;45482;-84
2021/04/30 10:11:59;;;;;;;3.28;1.38;;;;;;;12.18;80.95;97533.84;5078805;27;45551;-82
2021/04/30 10:14:25;;;;;;;1.58;1.10;;;;;;;12.19;82.95;97534.66;5092172;27;45530;-84
2021/04/30 10:16:53;;;;;;;1.67;1.20;;;;;;;12.20;82.60;97534.47;5079753;27;46095;-83
2021/04/30 10:19:21;;;;;;;1.90;1.00;;;;;;;12.03;80.51;97525.81;5079109;27;45400;-86
2021/04/30 10:21:49;;;;;;;1.98;1.30;;;;;;;12.14;80.33;97529.88;5080659;27;45233;-82
2021/04/30 10:24:16;;;;;;;5.03;2.88;;;;;;;12.03;80.25;97520.50;5078614;27;45478;-81
2021/04/30 10:26:44;;;;;;;4.40;3.05;;;;;;;12.09;83.35;97521.63;5090512;27;46329;-83
2021/04/30 10:29:17;;;;;;;5.53;3.75;;;;;;;12.02;80.90;97521.50;5088131;27;45318;-86
2021/04/30 10:31:46;;;;;;;2.28;1.33;;;;;;;11.97;79.99;97514.06;5095213;27;45379;-84
2021/04/30 10:34:16;;;;;;;5.03;3.30;;;;;;;12.19;82.40;97524.00;5098019;27;45375;-89
2021/04/30 10:36:47;;;;;;;5.20;3.53;;;;;;;12.28;81.87;97527.41;5093590;27;45911;-86
2021/04/30 10:39:25;;;;;;;8.93;4.38;;;;;;;12.21;82.66;97536.13;5097457;27;45546;-84
2021/04/30 10:41:50;;;;;;;7.45;3.90;;;;;;;12.06;85.38;97543.31;5099096;27;45362;-86
2021/04/30 10:44:17;;;;;;;4.97;2.42;;;;;;;12.13;82.10;97538.06;5098554;27;45355;-85
2021/04/30 10:46:45;;;;;;;4.28;1.70;;;;;;;12.08;82.81;97536.75;5094679;27;46112;-81
2021/04/30 10:49:16;;;;;;;1.30;1.10;;;;;;;12.26;83.38;97539.06;5099119;27;45365;-87
2021/04/30 10:52:02;;;;;;;2.83;0.93;;;;;;;12.06;81.03;97536.13;5099811;27;45428;-84
2021/04/30 10:54:34;;;;;;;1.42;0.80;;;;;;;12.10;83.55;97545.41;5093025;27;45426;-82
2021/04/30 10:57:07;;;;;;;9.32;6.63;;;;;;;11.85;85.57;97544.78;5096685;27;48483;-78
2021/04/30 10:59:36;;;;;;;9.75;8.10;;;;;;;11.97;83.82;97537.19;5083078;27;45456;-81
2021/04/30 11:02:17;;;;;;;4.43;3.92;;;;;;;12.08;84.89;97530.63;5093734;27;45441;-82
2021/04/30 11:05:05;;;;;;;2.80;1.80;;;;;;;12.05;87.17;97536.31;5086691;27;45317;-86
2021/04/30 11:07:43;;;;;;;2.22;1.15;;;;;;;12.15;86.13;97531.53;5091596;27;45320;-83
2021/04/30 11:10:42;;;;;;;4.00;1.40;;;;;;;12.14;84.97;97531.72;5094116;27;45417;-83
2021/04/30 11:13:07;;;;;;;1.48;1.10;;;;;;;11.90;81.54;97536.25;5079612;27;45352;-83
2021/04/30 11:15:54;;;;;;;2.30;2.10;;;;;;;12.21;87.30;97535.28;5090514;27;45420;-83
2021/04/30 11:18:21;;;;;;;3.92;3.38;;;;;;;12.16;88.02;97535.88;5078594;27;46467;-84
2021/04/30 11:20:57;;;;;;;2.03;1.58;;;;;;;12.23;81.30;97527.94;5077480;28;45333;-83
2021/04/30 11:23:28;;;;;;;6.32;2.45;;;;;;;12.16;82.53;97533.19;5078623;27;45609;-83
2021/04/30 11:26:00;;;;;;;7.55;6.85;;;;;;;12.28;84.72;97530.88;5077328;28;45463;-84
2021/04/30 11:28:31;;;;;;;3.92;2.85;;;;;;;12.08;76.26;97533.28;5086935;27;45365;-84
2021/04/30 11:31:08;;;;;;;5.25;2.42;;;;;;;12.36;80.82;97524.63;5081017;27;45875;-84
2021/04/30 11:33:44;;;;;;;6.78;2.85;;;;;;;12.25;80.31;97536.56;5078764;27;45409;-84
2021/04/30 11:36:14;;;;;;;3.53;2.03;;;;;;;12.24;79.13;97527.78;5089977;27;45362;-80